Time;durP1;ratioP1;P1;durP2;ratioP2;P2;SDS_P1;SDS_P2;PMS_P1;PMS_P2;Temp;Humidity;BMP_temperature;BMP_pressure;BME280_temperature;BME280_humidity;BME280_pressure;Samples;Min_cycle;Max_cycle;Signal;HPM_P1;HPM_P2
2021/03/22 00:02:02;;;;;;;5.60;4.05;;;;;;;5.30;48.32;99005.50;5033202;28;20083;-79
2021/03/22 00:04:27;;;;;;;3.45;3.15;;;;;;;5.25;47.76;98996.34;5032932;28;20033;-79
2021/03/22 00:06:56;;;;;;;4.85;3.55;;;;;;;5.24;47.94;98997.50;5033104;28;20034;-79
2021/03/22 00:09:21;;;;;;;5.30;3.92;;;;;;;5.22;48.38;98982.47;5036781;28;20029;-79
2021/03/22 00:11:47;;;;;;;4.90;4.07;;;;;;;5.28;48.39;98980.25;5037034;28;20471;-79
2021/03/22 00:14:12;;;;;;;4.97;4.45;;;;;;;5.29;48.14;98984.59;5037172;28;20029;-79
2021/03/22 00:16:38;;;;;;;6.13;3.75;;;;;;;5.28;47.89;98985.75;5036693;28;20108;-79
2021/03/22 00:19:04;;;;;;;5.28;4.30;;;;;;;5.23;47.90;98982.09;5036725;28;20053;-79
2021/03/22 00:21:29;;;;;;;4.72;3.55;;;;;;;5.23;48.09;98987.63;5036651;28;20044;-79
2021/03/22 00:23:55;;;;;;;9.88;3.88;;;;;;;5.20;47.96;98982.81;5036681;28;20415;-79
2021/03/22 00:26:20;;;;;;;5.10;3.60;;;;;;;5.21;47.90;98986.38;5036340;28;20037;-79
2021/03/22 00:28:46;;;;;;;4.45;3.33;;;;;;;5.25;47.99;98984.50;5037517;28;20038;-79
2021/03/22 00:31:14;;;;;;;6.45;3.35;;;;;;;5.22;47.61;98991.53;5036344;28;20041;-79
2021/03/22 00:33:40;;;;;;;4.43;2.90;;;;;;;5.20;47.19;98985.56;5036422;28;20029;-79
2021/03/22 00:36:07;;;;;;;3.15;2.85;;;;;;;5.21;47.73;98989.91;5036229;28;20033;-79
2021/03/22 00:38:35;;;;;;;3.45;3.13;;;;;;;5.19;47.05;98978.47;5036366;28;20120;-79
2021/03/22 00:41:02;;;;;;;3.75;2.95;;;;;;;5.08;47.30;98971.88;5036476;28;20033;-79
2021/03/22 00:43:28;;;;;;;5.97;3.58;;;;;;;5.13;47.29;98985.41;5036735;28;20116;-79
2021/03/22 00:45:58;;;;;;;5.10;3.25;;;;;;;5.05;47.16;98969.81;5036363;28;20526;-79
2021/03/22 00:48:25;;;;;;;3.65;2.72;;;;;;;5.20;47.21;98973.75;5037502;28;20029;-79
2021/03/22 00:50:51;;;;;;;5.00;3.65;;;;;;;5.14;47.80;98980.69;5037620;28;20036;-79
2021/03/22 00:53:17;;;;;;;4.20;2.85;;;;;;;4.98;47.97;98956.66;5036457;28;20037;-79
2021/03/22 00:55:44;;;;;;;4.72;3.88;;;;;;;5.02;47.93;98967.00;5035963;28;20091;-79
2021/03/22 00:58:09;;;;;;;6.18;3.70;;;;;;;5.15;47.88;98980.31;5038059;28;20040;-79
2021/03/22 01:00:54;;;;;;;5.93;3.92;;;;;;;5.12;48.30;98966.47;5035972;28;20037;-79
2021/03/22 01:03:20;;;;;;;;;;;;;;;5.12;47.68;98970.03;5036422;28;20171;-79
2021/03/22 01:05:46;;;;;;;4.90;3.50;;;;;;;5.05;47.93;98967.06;5036130;28;20003;-79
2021/03/22 01:08:12;;;;;;;5.05;3.72;;;;;;;5.01;48.44;98955.16;5036220;28;20607;-79
2021/03/22 01:10:40;;;;;;;7.25;4.18;;;;;;;4.98;48.36;98961.38;5036296;28;20068;-79
2021/03/22 01:13:42;;;;;;;5.00;3.88;;;;;;;4.89;48.85;98935.94;5036570;28;20033;-79
2021/03/22 01:16:08;;;;;;;6.43;3.58;;;;;;;5.01;48.45;98955.16;5014346;28;20041;-79
2021/03/22 01:18:41;;;;;;;4.30;3.53;;;;;;;5.00;48.57;98948.03;5035073;28;20053;-79
2021/03/22 01:21:14;;;;;;;4.82;3.63;;;;;;;4.93;48.96;98940.38;5036076;28;20037;-79
2021/03/22 01:23:39;;;;;;;3.83;3.15;;;;;;;4.98;49.02;98950.34;5035368;28;20476;-79
2021/03/22 01:26:07;;;;;;;6.50;3.65;;;;;;;5.02;49.08;98945.72;5035627;28;20030;-79
2021/03/22 01:28:33;;;;;;;4.82;3.40;;;;;;;4.98;48.86;98945.63;5036371;28;20069;-79
2021/03/22 01:30:59;;;;;;;3.53;3.15;;;;;;;4.98;48.63;98945.63;5038537;28;20037;-79
2021/03/22 01:33:35;;;;;;;3.33;2.50;;;;;;;5.20;47.95;98946.16;5038361;28;20039;-79
2021/03/22 01:36:07;;;;;;;3.05;2.83;;;;;;;5.13;48.20;98943.25;5035267;28;20056;-79
2021/03/22 01:38:33;;;;;;;3.05;2.75;;;;;;;5.03;50.41;98938.25;5035206;28;20044;-79
2021/03/22 01:41:18;;;;;;;3.03;2.53;;;;;;;4.97;50.37;98932.22;5018747;28;20034;-79
2021/03/22 01:44:18;;;;;;;4.28;2.80;;;;;;;4.92;49.73;98933.28;5035541;28;20033;-79
2021/03/22 01:46:50;;;;;;;2.72;2.47;;;;;;;4.88;50.71;98923.31;5035763;28;20037;-79
2021/03/22 01:49:17;;;;;;;5.22;2.65;;;;;;;4.98;50.28;98931.84;5035757;28;20052;-79
2021/03/22 01:51:43;;;;;;;2.55;2.35;;;;;;;4.98;50.29;98926.34;5035978;28;20025;-79
2021/03/22 01:54:10;;;;;;;4.68;3.20;;;;;;;4.99;49.98;98924.38;5035842;28;20033;-79
2021/03/22 01:56:45;;;;;;;3.30;2.80;;;;;;;5.06;49.57;98930.09;5035186;28;20033;-79
2021/03/22 01:59:12;;;;;;;2.90;2.70;;;;;;;5.11;49.43;98921.53;5035788;28;20433;-79
2021/03/22 02:01:39;;;;;;;3.20;2.45;;;;;;;5.11;49.11;98923.47;5035663;28;20406;-79
2021/03/22 02:04:05;;;;;;;3.10;2.70;;;;;;;5.10;49.22;98925.44;5035117;28;20041;-79
2021/03/22 02:06:32;;;;;;;3.03;2.72;;;;;;;5.09;49.21;98912.03;5034848;28;20037;-79
2021/03/22 02:08:59;;;;;;;2.97;2.78;;;;;;;4.99;49.40;98916.13;5034757;28;20091;-79
2021/03/22 02:11:27;;;;;;;7.88;3.58;;;;;;;5.08;49.96;98921.44;5034740;28;20120;-79
2021/03/22 02:13:56;;;;;;;5.03;3.83;;;;;;;5.09;49.67;98918.34;5034913;28;20029;-79
2021/03/22 02:16:24;;;;;;;6.95;4.40;;;;;;;5.04;49.47;98910.34;5035142;28;20029;-79
2021/03/22 02:19:23;;;;;;;4.20;3.42;;;;;;;4.83;49.61;98887.75;5033732;28;20136;-79
2021/03/22 02:21:54;;;;;;;3.97;2.90;;;;;;;4.80;49.89;98875.50;5034043;28;20034;-79
2021/03/22 02:24:20;;;;;;;4.40;3.10;;;;;;;5.02;50.01;98912.66;5034266;28;20033;-79
2021/03/22 02:27:07;;;;;;;3.55;3.17;;;;;;;5.03;50.32;98914.25;5035352;28;20037;-79
2021/03/22 02:29:54;;;;;;;4.40;2.78;;;;;;;5.02;50.39;98909.91;5034177;28;20029;-79
2021/03/22 02:32:55;;;;;;;2.78;2.47;;;;;;;5.01;49.76;98911.06;5034555;28;20388;-79
2021/03/22 02:35:31;;;;;;;4.47;3.08;;;;;;;5.04;49.85;98909.53;5034734;28;20025;-79
2021/03/22 02:38:12;;;;;;;4.40;3.58;;;;;;;5.13;48.73;98905.44;5033948;28;20034;-79
2021/03/22 02:40:49;;;;;;;3.72;3.40;;;;;;;5.06;49.23;98919.06;5033782;28;20030;-79
2021/03/22 02:43:15;;;;;;;3.55;3.20;;;;;;;5.05;49.22;98911.91;5034003;28;20438;-79
2021/03/22 02:45:42;;;;;;;6.78;4.60;;;;;;;5.04;49.65;98910.34;5033851;28;20026;-79
2021/03/22 02:48:16;;;;;;;5.38;4.40;;;;;;;5.09;50.21;98914.78;5034112;28;20025;-79
2021/03/22 02:50:42;;;;;;;4.53;3.45;;;;;;;5.05;50.15;98887.13;5033720;28;20033;-79
2021/03/22 02:53:08;;;;;;;3.72;2.38;;;;;;;5.32;50.22;98909.41;5033549;28;20034;-79
2021/03/22 02:56:02;;;;;;;3.60;2.80;;;;;;;5.22;50.44;98889.50;5033821;28;20036;-79
2021/03/22 02:58:36;;;;;;;3.92;2.53;;;;;;;5.33;51.10;98911.03;5033649;28;20114;-79
2021/03/22 03:01:07;;;;;;;2.65;2.45;;;;;;;5.28;50.92;98908.53;5033654;28;20029;-79
2021/03/22 03:03:38;;;;;;;6.57;4.03;;;;;;;5.23;50.95;98907.66;5034649;28;20026;-79
2021/03/22 03:06:04;;;;;;;4.28;2.92;;;;;;;5.26;51.40;98920.72;5016983;28;20029;-79
2021/03/22 03:08:35;;;;;;;4.82;3.88;;;;;;;5.31;51.33;98907.81;5033329;28;20029;-79
2021/03/22 03:11:00;;;;;;;3.30;3.00;;;;;;;5.22;51.68;98911.56;5033558;28;20025;-79
2021/03/22 03:13:29;;;;;;;3.20;2.88;;;;;;;5.32;50.82;98903.88;5033385;28;20423;-79
2021/03/22 03:15:54;;;;;;;3.33;3.00;;;;;;;5.41;51.38;98921.06;5033596;28;20428;-79
2021/03/22 03:18:20;;;;;;;3.25;2.67;;;;;;;5.42;50.92;98925.41;5035798;28;20052;-78
2021/03/22 03:20:46;;;;;;;2.63;2.47;;;;;;;5.48;50.35;98929.47;5036528;28;20032;-79
2021/03/22 03:23:15;;;;;;;3.22;2.97;;;;;;;5.45;50.44;98913.66;5036341;28;20025;-79
2021/03/22 03:25:41;;;;;;;3.63;2.50;;;;;;;5.44;51.73;98923.09;5036495;28;20535;-79
2021/03/22 03:28:07;;;;;;;2.67;2.47;;;;;;;5.40;50.36;98933.25;5036784;28;20029;-79
2021/03/22 03:30:36;;;;;;;2.65;2.50;;;;;;;5.45;51.45;98930.22;5036555;28;20059;-79
2021/03/22 03:33:04;;;;;;;5.00;3.60;;;;;;;5.51;51.18;98940.59;5054692;28;20434;-79
2021/03/22 03:35:34;;;;;;;4.35;3.00;;;;;;;5.62;49.73;98940.84;5036397;28;20025;-79
2021/03/22 03:37:59;;;;;;;3.75;3.45;;;;;;;5.66;50.04;98946.47;5036487;28;20391;-79
2021/03/22 03:40:32;;;;;;;3.60;2.97;;;;;;;5.71;49.52;98949.72;5035666;28;20044;-79
2021/03/22 03:42:58;;;;;;;2.95;2.72;;;;;;;5.62;49.92;98934.53;5037265;28;20047;-79
2021/03/22 03:45:25;;;;;;;4.35;2.75;;;;;;;5.65;50.15;98947.63;5040903;28;20032;-79
2021/03/22 03:47:51;;;;;;;3.42;3.10;;;;;;;5.65;49.77;98950.38;5041090;28;20025;-79
2021/03/22 03:50:24;;;;;;;3.55;3.03;;;;;;;5.66;49.40;98951.97;5041135;28;20044;-79
2021/03/22 03:52:53;;;;;;;5.22;2.45;;;;;;;5.65;49.75;98944.88;5040456;28;20033;-79
2021/03/22 03:55:21;;;;;;;3.67;3.00;;;;;;;5.65;49.79;98951.19;5041501;28;20068;-79
2021/03/22 03:57:51;;;;;;;3.45;2.42;;;;;;;5.54;50.01;98950.13;5042283;28;20024;-79
2021/03/22 04:00:27;;;;;;;7.43;3.28;;;;;;;5.63;49.36;98953.47;5044978;28;20029;-79
2021/03/22 04:02:54;;;;;;;2.85;2.60;;;;;;;5.61;49.43;98953.06;5042725;28;20128;-79
2021/03/22 04:05:26;;;;;;;4.32;2.83;;;;;;;5.72;48.88;98964.34;5040175;28;20028;-79
2021/03/22 04:07:52;;;;;;;3.10;2.42;;;;;;;5.73;49.04;98961.19;5039702;28;20024;-80
2021/03/22 04:10:17;;;;;;;7.00;3.55;;;;;;;5.64;48.71;98946.00;5039474;28;20029;-79
2021/03/22 04:12:43;;;;;;;4.65;2.70;;;;;;;5.64;49.27;98951.50;5039461;28;20029;-79
2021/03/22 04:15:13;;;;;;;3.83;2.70;;;;;;;5.65;49.54;98955.91;5039677;28;20480;-79
2021/03/22 04:17:38;;;;;;;6.38;3.13;;;;;;;5.22;49.93;98885.97;5039394;28;20047;-79
2021/03/22 04:20:06;;;;;;;3.40;3.08;;;;;;;5.50;49.69;98957.53;5035807;28;20049;-79
2021/03/22 04:22:31;;;;;;;5.55;2.90;;;;;;;5.61;49.44;98961.34;5036944;28;20411;-79
2021/03/22 04:24:57;;;;;;;6.85;2.63;;;;;;;5.53;49.79;98959.56;5036230;28;20037;-79
2021/03/22 04:27:23;;;;;;;3.35;3.05;;;;;;;5.52;50.08;98957.97;5036618;28;20029;-79
2021/03/22 04:29:48;;;;;;;4.07;2.38;;;;;;;5.54;49.63;98961.19;5036147;28;20466;-79
2021/03/22 04:32:14;;;;;;;3.15;2.85;;;;;;;5.66;49.29;98952.78;5036368;28;20038;-79
2021/03/22 04:34:40;;;;;;;4.70;2.97;;;;;;;5.68;49.32;98955.16;5036161;28;20029;-79
2021/03/22 04:37:07;;;;;;;3.28;2.97;;;;;;;5.61;49.60;98955.81;5035876;28;20119;-79
2021/03/22 04:39:32;;;;;;;3.60;3.28;;;;;;;5.62;49.42;98951.88;5036582;28;20367;-79
2021/03/22 04:41:58;;;;;;;3.80;2.85;;;;;;;5.71;48.66;98960.78;5035729;28;20112;-78
2021/03/22 04:44:24;;;;;;;5.10;3.05;;;;;;;5.71;49.13;98963.53;5035549;28;20030;-79
2021/03/22 04:46:50;;;;;;;4.45;2.47;;;;;;;5.66;49.15;98965.78;5036805;28;20038;-78
2021/03/22 04:49:16;;;;;;;3.75;2.47;;;;;;;5.69;48.61;98967.78;5035484;28;20387;-79
2021/03/22 04:51:41;;;;;;;4.90;3.17;;;;;;;5.57;48.34;98960.44;5035510;28;20039;-79
2021/03/22 04:54:08;;;;;;;4.95;2.92;;;;;;;5.56;47.13;98947.81;5035060;28;20074;-78
2021/03/22 04:56:34;;;;;;;3.15;2.85;;;;;;;5.68;47.58;98955.16;5035874;28;20045;-79
2021/03/22 04:59:00;;;;;;;3.33;2.80;;;;;;;5.62;47.57;98954.66;5036219;28;20137;-79
2021/03/22 05:01:26;;;;;;;2.55;2.35;;;;;;;5.70;47.47;98959.19;5035330;28;20140;-79
2021/03/22 05:03:52;;;;;;;4.05;3.13;;;;;;;5.64;47.31;98955.06;5035296;28;20092;-79
2021/03/22 05:06:18;;;;;;;3.58;2.40;;;;;;;5.66;46.68;98958.28;5035508;28;20029;-79
2021/03/22 05:08:43;;;;;;;3.95;2.72;;;;;;;5.71;47.21;98959.97;5035036;28;20029;-79
2021/03/22 05:11:09;;;;;;;2.20;2.00;;;;;;;5.64;46.29;98957.84;5035457;28;20041;-79
2021/03/22 05:13:35;;;;;;;4.85;2.95;;;;;;;5.68;46.14;98961.47;5036494;28;20427;-78
2021/03/22 05:16:00;;;;;;;4.30;3.30;;;;;;;5.75;45.49;98969.13;5035331;28;20060;-79
2021/03/22 05:18:30;;;;;;;2.53;2.33;;;;;;;5.78;44.67;98971.97;5035339;28;20388;-78
2021/03/22 05:21:03;;;;;;;5.53;2.97;;;;;;;5.44;44.56;98917.59;5034978;28;20044;-79
2021/03/22 05:23:30;;;;;;;4.72;2.38;;;;;;;5.77;44.75;98975.88;5035178;28;20071;-79
2021/03/22 05:26:00;;;;;;;4.05;2.75;;;;;;;5.77;43.95;98972.34;5035051;28;20373;-79
2021/03/22 05:28:28;;;;;;;3.58;2.33;;;;;;;5.78;44.14;98971.97;5035730;28;20030;-79
2021/03/22 05:30:54;;;;;;;6.03;2.63;;;;;;;5.76;44.28;98968.78;5034976;28;20030;-79
2021/03/22 05:33:21;;;;;;;3.35;2.80;;;;;;;5.87;43.54;98973.75;5035321;28;20108;-79
2021/03/22 05:35:55;;;;;;;4.30;3.08;;;;;;;5.92;43.28;98979.81;5035654;28;20476;-77
2021/03/22 05:38:22;;;;;;;3.53;2.78;;;;;;;5.95;43.07;98981.03;5035523;28;20104;-76
2021/03/22 05:41:01;;;;;;;3.72;2.92;;;;;;;6.02;42.96;98989.50;5034697;28;20026;-77
2021/03/22 05:44:05;;;;;;;4.47;2.78;;;;;;;6.12;43.42;98991.66;5034919;28;20060;-77
2021/03/22 05:46:46;;;;;;;3.58;2.88;;;;;;;6.30;42.75;98992.03;5028211;28;20038;-77
2021/03/22 05:49:23;;;;;;;3.28;2.88;;;;;;;6.57;42.43;98995.75;5034586;28;20454;-77
2021/03/22 05:51:51;;;;;;;4.53;2.80;;;;;;;6.41;42.84;98982.00;5034350;28;20068;-77
2021/03/22 05:54:43;;;;;;;2.97;2.50;;;;;;;6.91;41.83;99004.28;5034415;28;20037;-77
2021/03/22 05:57:28;;;;;;;4.05;2.65;;;;;;;7.19;41.44;99004.81;5034584;28;20427;-77
2021/03/22 06:00:15;;;;;;;6.85;3.22;;;;;;;7.29;41.25;99009.69;5034627;28;20091;-77
2021/03/22 06:03:03;;;;;;;3.75;3.00;;;;;;;7.10;41.81;99001.47;5034974;28;20033;-77
2021/03/22 06:06:08;;;;;;;4.25;2.58;;;;;;;7.25;41.09;99006.09;5035025;28;20044;-78
2021/03/22 06:09:01;;;;;;;4.72;2.70;;;;;;;8.32;40.05;99007.69;5035784;28;20029;-78
2021/03/22 06:11:34;;;;;;;8.37;3.13;;;;;;;8.73;38.57;99010.59;5034861;28;20041;-78
2021/03/22 06:14:06;;;;;;;4.18;2.95;;;;;;;8.88;37.70;99015.13;5034497;28;20623;-78
2021/03/22 06:16:40;;;;;;;4.63;2.60;;;;;;;9.70;36.83;99015.88;5035349;28;20096;-78
2021/03/22 06:19:09;;;;;;;3.63;3.08;;;;;;;10.10;35.87;99013.38;5033743;28;20064;-78
2021/03/22 06:21:36;;;;;;;4.15;2.70;;;;;;;9.54;36.75;99000.69;5035107;28;20047;-78
2021/03/22 06:24:14;;;;;;;5.05;2.63;;;;;;;9.78;36.46;99015.94;5036279;28;20029;-78
2021/03/22 06:26:44;;;;;;;3.88;2.33;;;;;;;9.85;36.55;99016.78;5034479;28;20034;-78
2021/03/22 06:29:36;;;;;;;6.55;2.65;;;;;;;9.87;35.36;99019.97;5034185;28;20392;-78
2021/03/22 06:32:12;;;;;;;3.47;2.33;;;;;;;10.74;35.17;99022.84;5035127;28;20067;-78
2021/03/22 06:34:55;;;;;;;4.47;2.55;;;;;;;11.20;33.77;99004.69;5033950;28;20471;-78
2021/03/22 06:37:28;;;;;;;3.00;2.50;;;;;;;11.71;33.18;99023.78;5033730;28;20053;-78
2021/03/22 06:40:27;;;;;;;3.28;2.97;;;;;;;12.52;31.67;99010.13;5033873;28;20033;-78
2021/03/22 06:43:01;;;;;;;3.60;2.83;;;;;;;13.70;30.34;99040.19;5033831;28;20444;-77
2021/03/22 06:45:33;;;;;;;4.10;3.22;;;;;;;12.98;30.17;99051.78;5033242;28;20033;-79
2021/03/22 06:48:13;;;;;;;3.38;3.08;;;;;;;12.89;30.62;99045.88;5034427;28;20026;-78
2021/03/22 06:50:38;;;;;;;4.20;3.17;;;;;;;13.69;29.50;99063.75;5034012;28;20036;-78
2021/03/22 06:53:04;;;;;;;6.47;3.53;;;;;;;13.23;29.57;99070.44;5033786;28;20029;-78
2021/03/22 06:55:30;;;;;;;2.97;2.72;;;;;;;13.73;28.89;99053.34;5033245;28;20120;-78
2021/03/22 06:57:56;;;;;;;2.67;2.45;;;;;;;14.01;28.33;99063.47;5033554;28;20084;-78
2021/03/22 07:00:24;;;;;;;3.30;2.88;;;;;;;13.71;28.44;99072.53;5033301;28;20130;-78
2021/03/22 07:02:59;;;;;;;3.40;3.00;;;;;;;14.34;28.12;99078.78;5033068;28;20030;-78
2021/03/22 07:05:25;;;;;;;3.72;2.58;;;;;;;14.39;27.20;99084.72;5032939;28;20037;-78
2021/03/22 07:08:10;;;;;;;4.15;3.50;;;;;;;13.95;28.29;99091.09;5032792;28;20029;-78
2021/03/22 07:10:45;;;;;;;7.38;4.20;;;;;;;14.12;28.58;99095.75;5034660;28;20026;-78
2021/03/22 07:13:22;;;;;;;15.68;7.72;;;;;;;13.32;29.40;99095.94;5032909;28;20029;-78
2021/03/22 07:15:50;;;;;;;9.80;5.68;;;;;;;13.18;29.62;99084.81;5032749;28;20030;-78
2021/03/22 07:18:31;;;;;;;6.88;3.72;;;;;;;13.58;30.06;99103.75;5035867;28;20502;-78
2021/03/22 07:20:59;;;;;;;3.63;2.92;;;;;;;13.75;29.67;99098.47;5036195;28;20475;-78
2021/03/22 07:23:33;;;;;;;9.25;2.85;;;;;;;13.90;28.74;99094.31;5036227;28;20414;-78
2021/03/22 07:25:58;;;;;;;;;;;;;;;13.51;29.15;99103.00;5036307;28;20108;-78
2021/03/22 07:28:39;;;;;;;14.48;3.05;;;;;;;13.31;29.95;99119.47;5036801;28;19986;-78
2021/03/22 07:31:37;;;;;;;3.78;2.85;;;;;;;14.01;29.40;99114.63;5036489;28;20028;-78
2021/03/22 07:34:17;;;;;;;3.80;3.42;;;;;;;13.42;29.08;99111.03;5036381;28;20033;-78
2021/03/22 07:37:20;;;;;;;4.00;3.22;;;;;;;12.92;30.38;99112.03;5036623;28;20035;-78
2021/03/22 07:40:23;;;;;;;5.55;4.18;;;;;;;12.03;32.71;99123.34;5035903;28;20078;-78
2021/03/22 07:43:01;;;;;;;5.78;3.67;;;;;;;12.36;32.42;99096.22;5035830;28;20111;-78
2021/03/22 07:45:50;;;;;;;8.30;6.68;;;;;;;12.76;31.96;99136.81;5035826;28;20132;-78
2021/03/22 07:48:35;;;;;;;6.60;4.35;;;;;;;12.76;31.16;99136.81;5035638;28;20048;-78
2021/03/22 07:51:25;;;;;;;3.20;2.90;;;;;;;12.96;31.25;99135.16;5036425;28;20029;-78
2021/03/22 07:54:22;;;;;;;6.90;3.35;;;;;;;13.28;30.84;99145.44;5036745;28;20024;-77
2021/03/22 07:57:33;;;;;;;5.68;2.60;;;;;;;12.97;31.12;99135.97;5036093;28;20371;-79
2021/03/22 07:59:58;;;;;;;5.20;4.03;;;;;;;13.87;30.18;99100.75;5015365;28;20037;-78
2021/03/22 08:02:45;;;;;;;3.80;3.03;;;;;;;13.42;30.71;99150.94;5036134;28;20028;-78
2021/03/22 08:05:29;;;;;;;3.50;3.20;;;;;;;12.51;32.58;99159.97;5036430;28;20043;-78
2021/03/22 08:07:58;;;;;;;;;;;;;;;12.07;32.45;99147.25;5036435;28;20379;-77
2021/03/22 08:10:32;;;;;;;3.33;2.70;;;;;;;12.22;32.87;99145.28;5053084;28;19970;-77
2021/03/22 08:13:25;;;;;;;7.25;2.88;;;;;;;13.30;30.39;99143.03;5036225;28;20052;-78
2021/03/22 08:16:09;;;;;;;3.60;3.05;;;;;;;12.88;31.34;99127.22;5036226;28;20451;-78
2021/03/22 08:19:06;;;;;;;2.95;2.70;;;;;;;12.81;31.16;99130.81;5032121;28;20057;-78
2021/03/22 08:21:59;;;;;;;3.05;2.83;;;;;;;12.37;32.05;99164.78;5023871;28;20037;-78
2021/03/22 08:25:02;;;;;;;5.00;2.83;;;;;;;13.19;30.85;99153.41;5032217;28;20132;-78
2021/03/22 08:27:31;;;;;;;4.07;2.80;;;;;;;12.17;32.19;99145.66;5032122;28;20052;-78
2021/03/22 08:30:05;;;;;;;5.07;2.75;;;;;;;13.20;30.75;99166.97;5035370;28;20047;-78
2021/03/22 08:32:53;;;;;;;5.40;2.80;;;;;;;11.83;32.41;99170.34;5036152;28;20030;-78
2021/03/22 08:35:25;;;;;;;2.80;2.53;;;;;;;12.55;32.40;99165.56;5035601;28;20057;-78
2021/03/22 08:37:59;;;;;;;5.00;3.00;;;;;;;13.28;30.03;99151.03;5035678;28;20061;-77
2021/03/22 08:40:40;;;;;;;4.63;2.92;;;;;;;13.04;30.02;99164.63;5036232;28;20455;-77
2021/03/22 08:43:15;;;;;;;3.70;2.28;;;;;;;12.23;31.22;99151.66;5035486;28;20029;-77
2021/03/22 08:46:22;;;;;;;5.30;4.70;;;;;;;12.99;30.50;99167.06;5035094;28;20040;-78
2021/03/22 08:48:48;;;;;;;4.32;2.35;;;;;;;13.98;28.95;99165.78;5032474;28;20038;-78
2021/03/22 08:51:33;;;;;;;3.80;2.33;;;;;;;13.85;29.57;99173.09;5036948;28;20043;-78
2021/03/22 08:53:59;;;;;;;4.00;3.10;;;;;;;14.43;28.96;99165.81;5040490;28;20029;-78
2021/03/22 08:56:46;;;;;;;3.22;2.13;;;;;;;15.02;28.61;99170.44;5037676;28;20040;-77
2021/03/22 08:59:19;;;;;;;3.20;2.35;;;;;;;15.23;27.66;99175.00;5035214;28;20117;-78
2021/03/22 09:01:45;;;;;;;4.13;3.60;;;;;;;13.88;28.94;99180.63;5032754;28;20048;-78
2021/03/22 09:04:33;;;;;;;4.68;2.10;;;;;;;13.18;29.93;99190.94;5035143;28;20029;-77
2021/03/22 09:07:11;;;;;;;5.43;4.47;;;;;;;12.03;31.92;99179.91;5036473;28;20029;-78
2021/03/22 09:09:40;;;;;;;6.32;5.75;;;;;;;13.20;29.90;99202.50;5036446;28;20041;-79
2021/03/22 09:12:45;;;;;;;4.07;3.30;;;;;;;12.36;30.75;99197.47;5034953;28;20040;-78
2021/03/22 09:15:22;;;;;;;5.88;3.78;;;;;;;12.39;31.77;99195.88;5035081;28;20353;-78
2021/03/22 09:17:48;;;;;;;3.53;2.75;;;;;;;11.92;31.77;99195.03;5034813;28;20041;-78
2021/03/22 09:20:24;;;;;;;4.43;2.03;;;;;;;12.35;30.18;99204.22;5034359;28;20054;-78
2021/03/22 09:23:03;;;;;;;3.95;3.13;;;;;;;12.86;29.76;99191.81;5035304;28;20025;-78
2021/03/22 09:25:47;;;;;;;3.35;2.63;;;;;;;12.45;30.39;99211.81;5035276;28;20128;-78
2021/03/22 09:28:25;;;;;;;4.13;2.08;;;;;;;12.23;30.38;99193.47;5034648;28;20022;-78
2021/03/22 09:30:56;;;;;;;3.53;1.88;;;;;;;12.44;30.51;99187.09;5034570;28;20029;-78
2021/03/22 09:33:48;;;;;;;75.10;45.92;;;;;;;13.38;29.35;99194.88;5034545;28;20036;-78
2021/03/22 09:36:33;;;;;;;18.77;13.07;;;;;;;14.04;27.72;99194.91;5034448;28;20025;-79
2021/03/22 09:39:04;;;;;;;2.30;2.10;;;;;;;13.07;28.61;99180.59;5035001;28;20067;-79
2021/03/22 09:41:52;;;;;;;2.28;2.08;;;;;;;13.96;28.19;99195.38;5034123;28;20120;-79
2021/03/22 09:44:37;;;;;;;4.70;1.85;;;;;;;13.44;27.78;99203.66;5034079;28;20037;-78
2021/03/22 09:47:19;;;;;;;2.35;2.15;;;;;;;13.36;28.42;99194.47;5035682;28;20057;-79
2021/03/22 09:50:05;;;;;;;2.42;2.08;;;;;;;13.45;29.13;99192.06;5034386;28;20033;-78
2021/03/22 09:52:34;;;;;;;2.42;2.15;;;;;;;14.35;28.56;99200.69;5034841;28;20361;-79
2021/03/22 09:55:21;;;;;;;5.15;3.35;;;;;;;14.97;28.13;99202.53;5034360;28;20444;-78
2021/03/22 09:57:49;;;;;;;3.60;3.15;;;;;;;14.72;27.05;99199.97;5034070;28;20037;-78
2021/03/22 10:00:33;;;;;;;3.22;2.00;;;;;;;14.98;27.19;99220.94;5034226;28;20539;-78
2021/03/22 10:03:18;;;;;;;4.65;3.85;;;;;;;14.28;28.60;99235.09;5034629;28;20029;-78
2021/03/22 10:05:47;;;;;;;3.35;2.92;;;;;;;13.87;29.82;99216.19;5034637;28;20037;-78
2021/03/22 10:08:22;;;;;;;4.30;3.90;;;;;;;14.34;29.59;99225.06;5034546;28;20353;-78
2021/03/22 10:10:52;;;;;;;5.65;3.20;;;;;;;14.66;29.65;99216.44;5033808;28;20091;-78
2021/03/22 10:13:36;;;;;;;3.63;2.83;;;;;;;14.14;29.53;99227.59;5034690;28;20076;-78
2021/03/22 10:16:09;;;;;;;3.65;2.70;;;;;;;13.64;30.87;99235.50;5034778;28;20091;-78
2021/03/22 10:18:41;;;;;;;3.88;3.30;;;;;;;12.82;31.38;99239.28;5033589;28;20057;-78
2021/03/22 10:21:33;;;;;;;4.68;3.22;;;;;;;13.38;30.91;99245.19;5034971;28;20037;-79
2021/03/22 10:24:01;;;;;;;2.85;2.60;;;;;;;13.79;31.09;99211.81;5034363;28;20088;-79
2021/03/22 10:26:29;;;;;;;2.63;2.13;;;;;;;13.18;30.58;99230.03;5034379;28;20112;-78
2021/03/22 10:29:14;;;;;;;2.85;2.00;;;;;;;12.48;30.73;99261.22;5034250;28;20029;-78
2021/03/22 10:31:41;;;;;;;2.17;1.98;;;;;;;12.05;32.70;99261.19;5033981;28;20032;-79
2021/03/22 10:34:26;;;;;;;4.20;2.38;;;;;;;12.25;32.42;99261.63;5034953;28;20165;-79
2021/03/22 10:36:52;;;;;;;4.07;2.50;;;;;;;13.22;31.12;99258.78;5034116;28;20181;-79
2021/03/22 10:39:30;;;;;;;2.95;2.35;;;;;;;12.61;32.19;99264.41;5033336;28;20021;-79
2021/03/22 10:41:56;;;;;;;4.15;2.40;;;;;;;12.73;31.98;99260.41;5033256;28;20128;-79
2021/03/22 10:44:31;;;;;;;2.13;1.80;;;;;;;12.54;33.15;99251.25;5033224;28;20075;-78
2021/03/22 10:47:14;;;;;;;5.93;3.05;;;;;;;12.18;32.47;99260.78;5033140;28;20036;-79
2021/03/22 10:49:41;;;;;;;8.65;3.25;;;;;;;11.98;33.23;99255.56;5032915;28;20057;-78
2021/03/22 10:52:25;;;;;;;7.72;4.28;;;;;;;11.91;33.21;99261.13;5033316;28;20388;-79
2021/03/22 10:54:52;;;;;;;8.60;5.57;;;;;;;12.41;33.46;99264.03;5033654;28;20029;-79
2021/03/22 10:57:23;;;;;;;3.13;2.60;;;;;;;12.36;33.35;99263.59;5033688;28;20025;-79
2021/03/22 10:59:52;;;;;;;2.90;1.70;;;;;;;12.73;32.71;99254.84;5033199;28;20053;-79
2021/03/22 11:03:03;;;;;;;1.80;1.70;;;;;;;12.65;32.69;99248.47;5034082;28;20030;-79
2021/03/22 11:05:38;;;;;;;2.33;2.00;;;;;;;12.88;32.56;99256.41;5012207;28;20076;-79
2021/03/22 11:08:08;;;;;;;2.90;2.17;;;;;;;13.13;32.36;99258.38;5034340;28;20048;-79
2021/03/22 11:10:35;;;;;;;3.03;1.83;;;;;;;13.72;31.98;99264.19;5033512;28;20026;-79
2021/03/22 11:13:03;;;;;;;2.53;2.28;;;;;;;13.29;31.94;99250.38;5034432;28;20025;-80
2021/03/22 11:15:37;;;;;;;2.55;2.35;;;;;;;12.98;32.14;99258.41;5033256;28;20022;-79
2021/03/22 11:18:07;;;;;;;3.33;1.95;;;;;;;13.24;31.47;99248.00;5033089;28;20033;-78
2021/03/22 11:20:33;;;;;;;3.45;2.58;;;;;;;13.75;30.96;99247.41;5037417;28;20052;-79
2021/03/22 11:23:27;;;;;;;4.82;1.95;;;;;;;14.15;30.27;99247.97;5040312;28;20029;-79
2021/03/22 11:26:18;;;;;;;2.28;2.08;;;;;;;14.27;29.35;99257.88;5040896;28;20036;-79
2021/03/22 11:28:45;;;;;;;4.30;3.42;;;;;;;14.28;29.42;99251.09;5054196;28;20017;-79
2021/03/22 11:31:25;;;;;;;2.55;2.35;;;;;;;13.44;30.39;99251.94;5054204;28;20029;-79
2021/03/22 11:34:03;;;;;;;3.13;2.42;;;;;;;14.11;30.32;99252.78;5035959;28;20029;-78
2021/03/22 11:36:38;;;;;;;5.47;2.50;;;;;;;14.05;29.87;99255.22;5036519;28;20029;-79
2021/03/22 11:39:23;;;;;;;2.60;2.40;;;;;;;13.99;29.65;99262.47;5036061;28;20025;-79
2021/03/22 11:41:52;;;;;;;2.63;2.40;;;;;;;14.30;29.59;99257.06;5035806;28;20480;-79
2021/03/22 11:44:30;;;;;;;2.40;1.95;;;;;;;14.82;29.07;99229.88;5035768;28;20029;-79
2021/03/22 11:47:27;;;;;;;2.60;2.22;;;;;;;14.85;28.43;99262.66;5035678;28;20121;-78
2021/03/22 11:49:54;;;;;;;2.67;2.28;;;;;;;15.34;27.20;99249.38;5035763;28;20055;-79
2021/03/22 11:52:29;;;;;;;3.10;2.40;;;;;;;15.67;27.47;99244.19;5054042;28;20523;-79
2021/03/22 11:54:56;;;;;;;3.70;2.53;;;;;;;15.34;27.83;99226.13;5036152;28;20079;-79
2021/03/22 11:57:49;;;;;;;2.63;2.40;;;;;;;15.08;29.07;99259.25;5036407;28;20594;-79
2021/03/22 12:00:20;;;;;;;3.58;2.53;;;;;;;14.56;29.24;99267.72;5035721;28;20032;-79
2021/03/22 12:02:57;;;;;;;2.97;1.90;;;;;;;14.15;30.06;99245.19;5036481;28;20032;-79
2021/03/22 12:05:32;;;;;;;5.40;3.22;;;;;;;13.63;30.43;99251.47;5039489;28;20383;-79
2021/03/22 12:08:35;;;;;;;4.07;2.92;;;;;;;13.25;31.02;99252.38;5039846;28;20036;-79
2021/03/22 12:11:03;;;;;;;2.55;2.08;;;;;;;13.25;31.35;99255.97;5039611;28;20057;-79
2021/03/22 12:13:28;;;;;;;1.90;1.27;;;;;;;12.71;31.82;99252.44;5039522;28;20036;-79